createdAt,value
2022-10-31T00:00:58.854Z,11.67
2022-10-31T00:04:04.620Z,11.71
2022-10-31T00:07:10.271Z,11.74
2022-10-31T00:10:18.846Z,11.66
2022-10-31T00:13:24.434Z,11.59
2022-10-31T00:16:31.789Z,11.44
2022-10-31T00:19:37.358Z,11.40
2022-10-31T00:22:42.924Z,11.36
2022-10-31T00:25:51.113Z,11.34
2022-10-31T00:28:59.140Z,11.33
2022-10-31T00:32:06.269Z,11.33
2022-10-31T00:35:12.482Z,11.29
2022-10-31T00:38:18.113Z,11.33
2022-10-31T00:41:26.387Z,11.34
2022-10-31T00:44:31.984Z,11.35
2022-10-31T00:47:38.274Z,11.29
2022-10-31T00:50:44.485Z,11.29
2022-10-31T00:53:50.486Z,11.16
2022-10-31T00:56:58.802Z,11.03
2022-10-31T01:00:04.589Z,10.99
2022-10-31T01:03:10.329Z,11.04
2022-10-31T01:06:20.464Z,11.00
2022-10-31T01:09:26.065Z,11.03
2022-10-31T01:12:34.211Z,11.04
2022-10-31T01:15:39.770Z,11.00
2022-10-31T01:18:48.041Z,10.73
2022-10-31T01:21:54.045Z,10.72
2022-10-31T01:24:59.636Z,10.58
2022-10-31T01:28:08.209Z,10.60
2022-10-31T01:31:14.146Z,10.58
2022-10-31T01:34:21.496Z,10.63
2022-10-31T01:37:27.288Z,10.66
2022-10-31T01:40:34.207Z,10.67
2022-10-31T01:43:55.835Z,10.69
2022-10-31T01:47:09.632Z,10.52
2022-10-31T01:50:30.172Z,10.38
2022-10-31T01:53:37.439Z,10.37
2022-10-31T01:56:52.920Z,10.33
2022-10-31T02:00:08.843Z,10.40
2022-10-31T02:03:24.186Z,10.40
2022-10-31T02:06:42.987Z,10.39
2022-10-31T02:09:57.185Z,10.28
2022-10-31T02:13:08.268Z,10.20
2022-10-31T02:16:25.077Z,10.21
2022-10-31T02:19:45.013Z,10.23
2022-10-31T02:23:45.212Z,10.25
2022-10-31T02:27:22.178Z,10.28
2022-10-31T02:30:40.152Z,10.34
2022-10-31T02:33:57.429Z,10.25
2022-10-31T02:37:17.604Z,10.23
2022-10-31T02:40:34.622Z,10.36
2022-10-31T02:44:13.426Z,10.37
2022-10-31T02:47:26.333Z,10.32
2022-10-31T02:50:41.216Z,10.35
2022-10-31T02:53:48.953Z,10.32
2022-10-31T02:57:06.012Z,10.38
2022-10-31T03:00:16.267Z,10.22
2022-10-31T03:03:32.923Z,10.08
2022-10-31T03:06:55.264Z,10.01
2022-10-31T03:10:16.910Z,9.92
2022-10-31T03:13:36.551Z,9.94
2022-10-31T03:16:52.641Z,9.88
2022-10-31T03:20:04.946Z,9.74
2022-10-31T03:23:21.691Z,9.46
2022-10-31T03:26:30.644Z,9.37
2022-10-31T03:29:42.320Z,9.25
2022-10-31T03:32:55.905Z,9.30
2022-10-31T03:36:12.390Z,9.29
2022-10-31T03:39:26.752Z,9.31
2022-10-31T03:42:41.445Z,9.30
2022-10-31T03:45:51.211Z,9.24
2022-10-31T03:48:57.402Z,9.16
2022-10-31T03:52:20.948Z,9.22
2022-10-31T03:55:43.300Z,9.21
2022-10-31T03:59:02.729Z,9.29
2022-10-31T04:02:17.231Z,9.30
2022-10-31T04:05:25.771Z,9.22
2022-10-31T04:08:46.159Z,9.12
2022-10-31T04:12:03.741Z,9.07
2022-10-31T04:15:38.943Z,9.12
2022-10-31T04:18:48.820Z,9.07
2022-10-31T04:21:55.791Z,9.10
2022-10-31T04:25:01.658Z,9.13
2022-10-31T04:28:10.001Z,9.14
2022-10-31T04:31:16.567Z,9.06
2022-10-31T04:34:26.187Z,8.95
2022-10-31T04:37:31.952Z,8.97
2022-10-31T04:40:39.173Z,8.98
2022-10-31T04:44:07.724Z,8.98
2022-10-31T04:47:13.625Z,9.13
2022-10-31T04:50:19.875Z,9.22
2022-10-31T04:53:26.601Z,9.19
2022-10-31T04:56:52.235Z,9.06
2022-10-31T05:00:11.325Z,9.03
2022-10-31T05:03:17.729Z,9.07
2022-10-31T05:06:23.369Z,9.04
2022-10-31T05:09:29.027Z,9.01
2022-10-31T05:12:34.782Z,8.97
2022-10-31T05:15:49.037Z,8.81
2022-10-31T05:19:30.600Z,8.77
2022-10-31T05:23:15.555Z,8.69
2022-10-31T05:26:21.552Z,8.64
2022-10-31T05:29:27.475Z,8.64
2022-10-31T05:32:42.608Z,8.52
2022-10-31T05:36:14.413Z,8.47
2022-10-31T05:39:40.360Z,8.44
2022-10-31T05:42:56.564Z,8.39
2022-10-31T05:46:02.420Z,8.28
2022-10-31T05:49:28.988Z,8.16
2022-10-31T05:53:00.775Z,8.10
2022-10-31T05:56:33.691Z,8.08
2022-10-31T05:59:40.182Z,8.08
2022-10-31T06:02:46.217Z,8.17
2022-10-31T06:06:25.331Z,8.23
2022-10-31T06:09:35.811Z,8.32
2022-10-31T06:12:47.738Z,8.44
2022-10-31T06:16:06.115Z,8.55
2022-10-31T06:19:18.762Z,8.61
2022-10-31T06:22:27.802Z,8.79
2022-10-31T06:25:34.407Z,8.87
2022-10-31T06:28:40.303Z,8.93
2022-10-31T06:32:00.239Z,9.15
2022-10-31T06:35:18.824Z,9.42
2022-10-31T06:38:35.938Z,9.54
2022-10-31T06:41:53.619Z,9.72
2022-10-31T06:45:01.156Z,9.88
2022-10-31T06:48:26.002Z,10.39
2022-10-31T06:51:59.438Z,10.83
2022-10-31T06:55:19.642Z,11.22
2022-10-31T06:58:25.586Z,11.36
2022-10-31T07:01:35.792Z,11.57
2022-10-31T07:04:42.165Z,11.94
2022-10-31T07:07:50.406Z,12.38
2022-10-31T07:11:05.280Z,12.71
2022-10-31T07:14:11.150Z,13.20
2022-10-31T07:17:17.013Z,13.66
2022-10-31T07:20:24.564Z,14.04
2022-10-31T07:23:30.686Z,14.46
2022-10-31T07:30:05.551Z,15.18
2022-10-31T07:33:12.736Z,15.93
2022-10-31T07:36:41.765Z,16.21
2022-10-31T07:39:47.619Z,17.01
2022-10-31T07:42:57.637Z,17.42
2022-10-31T07:46:27.307Z,17.78
2022-10-31T07:49:39.999Z,18.08
2022-10-31T07:53:07.683Z,18.42
2022-10-31T07:56:39.618Z,18.78
2022-10-31T07:59:48.462Z,18.62
2022-10-31T08:03:02.565Z,18.76
2022-10-31T08:06:27.228Z,18.70
2022-10-31T08:09:49.715Z,18.99
2022-10-31T08:13:03.510Z,18.95
2022-10-31T08:16:12.880Z,18.94
2022-10-31T08:19:28.540Z,19.22
2022-10-31T08:22:37.619Z,19.36
2022-10-31T08:25:48.097Z,19.67
2022-10-31T08:28:55.731Z,19.85
2022-10-31T08:32:06.006Z,20.02
2022-10-31T08:35:38.068Z,19.90
2022-10-31T08:39:02.438Z,19.70
2022-10-31T08:42:09.346Z,19.64
2022-10-31T08:45:15.059Z,20.56
2022-10-31T08:48:23.386Z,20.94
2022-10-31T08:51:29.134Z,21.79
2022-10-31T08:54:36.007Z,21.29
2022-10-31T08:58:10.919Z,21.57
2022-10-31T09:01:27.606Z,22.59
2022-10-31T09:04:36.006Z,22.42
2022-10-31T09:07:41.735Z,23.33
2022-10-31T09:10:49.062Z,23.93
2022-10-31T09:13:59.869Z,24.28
2022-10-31T09:17:17.645Z,24.24
2022-10-31T09:20:50.764Z,24.22
2022-10-31T09:23:56.936Z,24.74
2022-10-31T09:27:03.370Z,25.29
2022-10-31T09:30:13.381Z,25.09
2022-10-31T09:33:20.003Z,24.83
2022-10-31T09:36:40.038Z,24.86
2022-10-31T09:40:15.873Z,25.06
2022-10-31T09:43:37.634Z,25.93
2022-10-31T09:47:05.163Z,25.48
2022-10-31T09:50:23.878Z,24.93
2022-10-31T09:53:44.013Z,26.12
2022-10-31T09:56:53.559Z,26.21
2022-10-31T10:00:15.647Z,26.08
2022-10-31T10:03:37.911Z,26.03
2022-10-31T10:07:15.376Z,26.93
2022-10-31T10:10:38.897Z,26.67
2022-10-31T10:14:37.264Z,26.09
2022-10-31T10:18:02.840Z,26.15
2022-10-31T10:21:34.477Z,25.30
2022-10-31T10:25:06.248Z,25.77
2022-10-31T10:28:27.471Z,26.00
2022-10-31T10:31:44.278Z,25.79
2022-10-31T10:34:56.068Z,25.86
2022-10-31T10:38:14.388Z,25.70
2022-10-31T10:41:24.922Z,26.24
2022-10-31T10:44:45.591Z,26.27
2022-10-31T10:48:09.808Z,26.62
2022-10-31T10:52:13.199Z,26.53
2022-10-31T10:55:43.880Z,27.19
2022-10-31T10:58:49.589Z,26.86
2022-10-31T11:01:58.727Z,26.52
2022-10-31T11:05:17.238Z,26.65
2022-10-31T11:08:29.887Z,26.05
2022-10-31T11:11:36.942Z,25.69
2022-10-31T11:14:53.171Z,25.65
2022-10-31T11:18:02.545Z,26.20
2022-10-31T11:21:29.722Z,26.31
2022-10-31T11:24:44.866Z,25.67
2022-10-31T11:28:02.149Z,26.19
2022-10-31T11:31:19.767Z,25.26
2022-10-31T11:34:40.952Z,24.52
2022-10-31T11:37:50.712Z,25.23
2022-10-31T11:41:17.026Z,25.41
2022-10-31T11:44:29.894Z,25.33
2022-10-31T11:47:38.025Z,24.57
2022-10-31T11:50:58.608Z,24.08
2022-10-31T11:54:08.830Z,24.12
2022-10-31T11:57:32.809Z,24.58
2022-10-31T12:00:42.899Z,24.77
2022-10-31T12:04:10.248Z,25.36
2022-10-31T12:07:18.891Z,25.31
2022-10-31T12:10:54.837Z,25.37
2022-10-31T12:14:24.651Z,25.67
2022-10-31T12:17:45.526Z,25.57
2022-10-31T12:21:27.637Z,25.67
2022-10-31T12:25:10.709Z,25.99
2022-10-31T12:28:55.236Z,26.15
2022-10-31T12:32:26.551Z,26.06
2022-10-31T12:35:51.819Z,26.43
2022-10-31T12:39:35.013Z,26.23
2022-10-31T12:43:09.012Z,26.51
2022-10-31T12:46:34.276Z,26.36
2022-10-31T12:50:00.729Z,25.59
2022-10-31T12:53:32.829Z,25.89
2022-10-31T12:56:55.989Z,25.25
2022-10-31T13:00:15.572Z,24.83
2022-10-31T13:03:37.525Z,24.44
2022-10-31T13:06:52.240Z,24.44
2022-10-31T13:10:10.216Z,24.10
2022-10-31T13:13:25.499Z,24.15
2022-10-31T13:16:42.381Z,23.21
2022-10-31T13:19:51.592Z,22.80
2022-10-31T13:23:23.359Z,22.53
2022-10-31T13:26:48.213Z,22.00
2022-10-31T13:30:06.231Z,21.50
2022-10-31T13:33:25.382Z,21.34
2022-10-31T13:36:41.575Z,21.22
2022-10-31T13:40:08.777Z,20.89
2022-10-31T13:43:32.468Z,20.52
2022-10-31T13:46:45.902Z,20.41
2022-10-31T13:49:54.674Z,20.30
2022-10-31T13:53:17.846Z,20.20
2022-10-31T13:56:30.097Z,20.14
2022-10-31T13:59:42.270Z,20.11
2022-10-31T14:03:01.190Z,19.97
2022-10-31T14:06:14.838Z,19.90
2022-10-31T14:09:31.507Z,19.75
2022-10-31T14:12:47.469Z,19.67
2022-10-31T14:16:01.665Z,19.70
2022-10-31T14:19:20.479Z,19.68
2022-10-31T14:22:42.917Z,19.67
2022-10-31T14:25:56.523Z,19.57
2022-10-31T14:29:06.302Z,19.48
2022-10-31T14:32:30.374Z,19.42
2022-10-31T14:35:57.589Z,19.38
2022-10-31T14:39:23.479Z,19.34
2022-10-31T14:42:59.336Z,19.20
2022-10-31T14:46:18.908Z,19.13
2022-10-31T14:49:51.795Z,19.06
2022-10-31T14:53:04.562Z,18.94
2022-10-31T14:56:16.096Z,18.72
2022-10-31T14:59:45.588Z,18.56
2022-10-31T15:03:15.949Z,18.35
2022-10-31T15:06:28.401Z,18.19
2022-10-31T15:09:44.609Z,18.06
2022-10-31T15:12:53.251Z,17.99
2022-10-31T15:16:00.803Z,17.92
2022-10-31T15:19:11.455Z,17.88
2022-10-31T15:22:23.061Z,17.70
2022-10-31T15:25:40.003Z,17.38
2022-10-31T15:28:49.427Z,17.19
2022-10-31T15:31:57.433Z,17.15
2022-10-31T15:35:09.950Z,17.00
2022-10-31T15:38:19.962Z,16.83
2022-10-31T15:41:35.645Z,16.65
2022-10-31T15:44:47.494Z,16.50
2022-10-31T15:48:07.980Z,16.30
2022-10-31T15:51:18.466Z,16.09
2022-10-31T15:54:35.305Z,15.89
2022-10-31T15:57:47.815Z,15.68
2022-10-31T16:01:11.189Z,15.57
2022-10-31T16:04:27.727Z,15.45
2022-10-31T16:07:34.783Z,15.38
2022-10-31T16:10:44.583Z,15.20
2022-10-31T16:14:08.562Z,15.07
2022-10-31T16:17:27.200Z,14.95
2022-10-31T16:20:35.567Z,14.76
2022-10-31T16:23:49.831Z,14.67
2022-10-31T16:27:04.377Z,14.54
2022-10-31T16:30:46.966Z,14.42
2022-10-31T16:34:08.800Z,14.31
2022-10-31T16:37:17.764Z,14.20
2022-10-31T16:40:24.427Z,14.13
2022-10-31T16:43:30.054Z,14.05
2022-10-31T16:46:35.825Z,13.93
2022-10-31T16:49:52.224Z,13.83
2022-10-31T16:53:13.477Z,13.72
2022-10-31T16:56:32.683Z,13.64
2022-10-31T16:59:38.955Z,13.54
2022-10-31T17:02:46.313Z,13.46
2022-10-31T17:05:56.305Z,13.32
2022-10-31T17:09:01.864Z,13.11
2022-10-31T17:12:28.892Z,12.95
2022-10-31T17:15:45.690Z,13.02
2022-10-31T17:18:51.283Z,12.94
2022-10-31T17:22:19.027Z,12.90
2022-10-31T17:25:39.240Z,12.90
2022-10-31T17:28:45.691Z,12.72
2022-10-31T17:31:51.538Z,12.74
2022-10-31T17:34:57.105Z,12.78
2022-10-31T17:38:13.936Z,12.74
2022-10-31T17:41:19.861Z,12.72
2022-10-31T17:44:32.029Z,12.68
2022-10-31T17:47:39.282Z,12.58
2022-10-31T17:50:45.054Z,12.55
2022-10-31T17:53:53.363Z,12.45
2022-10-31T17:56:59.058Z,12.25
2022-10-31T18:00:04.979Z,12.10
2022-10-31T18:03:11.382Z,12.15
2022-10-31T18:06:17.416Z,12.26
2022-10-31T18:09:25.887Z,12.27
2022-10-31T18:12:32.449Z,12.31
2022-10-31T18:15:42.901Z,12.26
2022-10-31T18:18:52.570Z,12.16
2022-10-31T18:21:58.149Z,12.17
2022-10-31T18:25:06.761Z,12.14
2022-10-31T18:28:13.478Z,12.13
2022-10-31T18:31:19.251Z,12.07
2022-10-31T18:34:25.233Z,12.02
2022-10-31T18:37:31.394Z,11.99
2022-10-31T18:40:40.078Z,11.94
2022-10-31T18:43:46.291Z,11.92
2022-10-31T18:46:51.928Z,11.86
2022-10-31T18:49:57.519Z,11.83
2022-10-31T18:53:03.463Z,11.77
2022-10-31T18:56:16.676Z,11.71
2022-10-31T18:59:22.257Z,11.56
2022-10-31T19:02:27.845Z,11.50
2022-10-31T19:05:33.623Z,11.43
2022-10-31T19:08:40.429Z,11.46
2022-10-31T19:11:49.751Z,11.44
2022-10-31T19:14:55.498Z,11.40
2022-10-31T19:18:01.341Z,11.40
2022-10-31T19:21:16.059Z,11.31
2022-10-31T19:24:21.724Z,11.16
2022-10-31T19:27:29.899Z,11.10
2022-10-31T19:30:35.560Z,11.12
2022-10-31T19:33:41.660Z,11.13
2022-10-31T19:36:47.305Z,11.13
2022-10-31T19:39:53.032Z,11.11
2022-10-31T19:43:08.027Z,11.11
2022-10-31T19:46:27.757Z,11.07
2022-10-31T19:49:43.483Z,10.93
2022-10-31T19:52:49.954Z,10.83
2022-10-31T19:55:55.562Z,10.77
2022-10-31T19:59:04.803Z,10.85
2022-10-31T20:02:10.473Z,11.02
2022-10-31T20:05:29.307Z,11.00
2022-10-31T20:08:39.552Z,11.04
2022-10-31T20:11:51.834Z,11.05
2022-10-31T20:15:00.790Z,10.95
2022-10-31T20:18:06.498Z,10.79
2022-10-31T20:21:21.954Z,10.75
2022-10-31T20:24:27.943Z,10.90
2022-10-31T20:27:33.645Z,10.93
2022-10-31T20:30:42.861Z,10.98
2022-10-31T20:33:48.811Z,10.88
2022-10-31T20:36:54.447Z,10.62
2022-10-31T20:40:00.436Z,10.51
2022-10-31T20:43:14.787Z,10.39
2022-10-31T20:46:26.470Z,10.23
2022-10-31T20:49:33.591Z,10.07
2022-10-31T20:52:40.731Z,10.03
2022-10-31T20:55:46.390Z,10.04
2022-10-31T20:59:00.323Z,10.11
2022-10-31T21:02:13.644Z,10.06
2022-10-31T21:05:23.920Z,10.12
2022-10-31T21:08:32.969Z,10.27
2022-10-31T21:11:38.985Z,10.31
2022-10-31T21:14:44.591Z,10.35
2022-10-31T21:17:52.937Z,10.50
2022-10-31T21:20:58.667Z,10.63
2022-10-31T21:24:08.448Z,10.78
2022-10-31T21:27:14.201Z,10.76
2022-10-31T21:30:20.049Z,10.76
2022-10-31T21:33:28.631Z,10.78
2022-10-31T21:36:43.036Z,10.52
2022-10-31T21:39:50.941Z,10.24
2022-10-31T21:42:58.463Z,10.05
2022-10-31T21:46:07.781Z,9.87
2022-10-31T21:49:16.561Z,9.76
2022-10-31T21:52:22.255Z,9.61
2022-10-31T21:55:25.247Z,9.55
2022-10-31T21:58:34.890Z,9.60
2022-10-31T22:01:43.968Z,9.65
2022-10-31T22:04:52.741Z,9.55
2022-10-31T22:07:58.548Z,9.51
2022-10-31T22:11:07.398Z,9.60
2022-10-31T22:14:17.261Z,9.44
2022-10-31T22:17:23.740Z,9.02
2022-10-31T22:20:32.319Z,8.80
2022-10-31T22:23:38.538Z,8.82
2022-10-31T22:26:44.898Z,8.71
2022-10-31T22:29:55.544Z,8.64
2022-10-31T22:33:02.711Z,8.59
2022-10-31T22:36:17.074Z,8.61
2022-10-31T22:39:23.395Z,8.55
2022-10-31T22:42:29.611Z,8.44
2022-10-31T22:45:35.405Z,8.37
2022-10-31T22:48:45.531Z,8.29
2022-10-31T22:51:55.632Z,8.32
2022-10-31T22:55:01.793Z,8.27
2022-10-31T22:58:07.706Z,8.21
2022-10-31T23:01:16.681Z,8.22
2022-10-31T23:04:30.281Z,8.20
2022-10-31T23:07:38.801Z,8.27
2022-10-31T23:10:49.274Z,8.31
2022-10-31T23:14:11.728Z,8.37
2022-10-31T23:17:20.535Z,8.43
2022-10-31T23:20:28.642Z,8.43
2022-10-31T23:23:40.925Z,8.33
2022-10-31T23:26:59.164Z,8.29
2022-10-31T23:30:05.920Z,8.24
2022-10-31T23:33:11.584Z,8.13
2022-10-31T23:36:17.211Z,7.98
2022-10-31T23:39:33.559Z,7.96
2022-10-31T23:42:43.734Z,8.09
2022-10-31T23:45:49.318Z,8.16
2022-10-31T23:48:55.017Z,8.18
2022-10-31T23:52:00.896Z,8.20
2022-10-31T23:55:10.163Z,8.37
2022-10-31T23:58:15.971Z,8.33
